sensor_id;sensor_type;location;lat;lon;timestamp;pressure;altitude;pressure_sealevel;temperature;humidity
17260;BME280;8746;49.230;9.220;2023-03-16T00:01:14;100465.97;;;-1.06;100.00
17260;BME280;8746;49.230;9.220;2023-03-16T00:03:39;100470.91;;;-1.22;100.00
17260;BME280;8746;49.230;9.220;2023-03-16T00:06:04;100467.38;;;-1.27;100.00
17260;BME280;8746;49.230;9.220;2023-03-16T00:08:30;100469.25;;;-1.18;100.00
17260;BME280;8746;49.230;9.220;2023-03-16T00:10:55;100466.56;;;-1.24;100.00
17260;BME280;8746;49.230;9.220;2023-03-16T00:13:22;100464.00;;;-1.21;100.00
17260;BME280;8746;49.230;9.220;2023-03-16T00:15:50;100476.19;;;-1.16;100.00
17260;BME280;8746;49.230;9.220;2023-03-16T00:18:16;100479.59;;;-1.17;100.00
17260;BME280;8746;49.230;9.220;2023-03-16T00:20:41;100466.53;;;-1.26;100.00
17260;BME280;8746;49.230;9.220;2023-03-16T00:23:06;100466.59;;;-1.21;100.00
17260;BME280;8746;49.230;9.220;2023-03-16T00:25:31;100486.44;;;-1.20;100.00
17260;BME280;8746;49.230;9.220;2023-03-16T00:27:58;100478.75;;;-1.17;100.00
17260;BME280;8746;49.230;9.220;2023-03-16T00:30:23;100469.25;;;-1.17;100.00
17260;BME280;8746;49.230;9.220;2023-03-16T00:32:49;100470.94;;;-1.19;100.00
17260;BME280;8746;49.230;9.220;2023-03-16T00:35:17;100472.78;;;-1.11;100.00
17260;BME280;8746;49.230;9.220;2023-03-16T00:37:43;100471.09;;;-1.09;100.00
17260;BME280;8746;49.230;9.220;2023-03-16T00:40:09;100472.00;;;-1.07;100.00
17260;BME280;8746;49.230;9.220;2023-03-16T00:42:36;100472.75;;;-1.15;100.00
17260;BME280;8746;49.230;9.220;2023-03-16T00:45:02;100469.16;;;-1.23;100.00
17260;BME280;8746;49.230;9.220;2023-03-16T00:47:29;100470.81;;;-1.28;100.00
17260;BME280;8746;49.230;9.220;2023-03-16T00:49:55;100471.56;;;-1.34;100.00
17260;BME280;8746;49.230;9.220;2023-03-16T00:52:21;100468.88;;;-1.38;100.00
17260;BME280;8746;49.230;9.220;2023-03-16T00:54:48;100471.47;;;-1.40;100.00
17260;BME280;8746;49.230;9.220;2023-03-16T00:57:15;100468.78;;;-1.45;100.00
17260;BME280;8746;49.230;9.220;2023-03-16T00:59:43;100457.63;;;-1.42;100.00
17260;BME280;8746;49.230;9.220;2023-03-16T01:02:09;100460.19;;;-1.42;100.00
17260;BME280;8746;49.230;9.220;2023-03-16T01:04:35;100461.19;;;-1.37;100.00
17260;BME280;8746;49.230;9.220;2023-03-16T01:07:03;100461.19;;;-1.37;100.00
17260;BME280;8746;49.230;9.220;2023-03-16T01:09:29;100456.00;;;-1.37;100.00
17260;BME280;8746;49.230;9.220;2023-03-16T01:11:54;100454.19;;;-1.41;100.00
17260;BME280;8746;49.230;9.220;2023-03-16T01:14:21;100440.47;;;-1.35;100.00
17260;BME280;8746;49.230;9.220;2023-03-16T01:16:47;100438.53;;;-1.49;100.00
17260;BME280;8746;49.230;9.220;2023-03-16T01:19:12;100447.00;;;-1.59;100.00
17260;BME280;8746;49.230;9.220;2023-03-16T01:21:39;100447.00;;;-1.59;100.00
17260;BME280;8746;49.230;9.220;2023-03-16T01:24:07;100443.50;;;-1.61;100.00
17260;BME280;8746;49.230;9.220;2023-03-16T01:26:32;100447.88;;;-1.57;100.00
17260;BME280;8746;49.230;9.220;2023-03-16T01:28:58;100450.53;;;-1.54;100.00
17260;BME280;8746;49.230;9.220;2023-03-16T01:31:23;100447.09;;;-1.53;100.00
17260;BME280;8746;49.230;9.220;2023-03-16T01:33:48;100447.31;;;-1.39;100.00
17260;BME280;8746;49.230;9.220;2023-03-16T01:36:16;100436.88;;;-1.45;100.00
17260;BME280;8746;49.230;9.220;2023-03-16T01:38:41;100441.75;;;-1.64;100.00
17260;BME280;8746;49.230;9.220;2023-03-16T01:41:07;100439.09;;;-1.67;100.00
17260;BME280;8746;49.230;9.220;2023-03-16T01:43:35;100439.13;;;-1.65;100.00
17260;BME280;8746;49.230;9.220;2023-03-16T01:48:32;100441.63;;;-1.70;100.00
17260;BME280;8746;49.230;9.220;2023-03-16T01:51:03;100433.81;;;-1.73;100.00
17260;BME280;8746;49.230;9.220;2023-03-16T01:53:29;100436.41;;;-1.71;100.00
17260;BME280;8746;49.230;9.220;2023-03-16T01:55:58;100440.66;;;-1.75;100.00
17260;BME280;8746;49.230;9.220;2023-03-16T01:58:26;100438.97;;;-1.74;100.00
17260;BME280;8746;49.230;9.220;2023-03-16T02:00:53;100438.84;;;-1.81;100.00
17260;BME280;8746;49.230;9.220;2023-03-16T02:03:20;100442.50;;;-1.68;100.00
17260;BME280;8746;49.230;9.220;2023-03-16T02:05:56;100433.13;;;-1.63;100.00
17260;BME280;8746;49.230;9.220;2023-03-16T02:08:24;100429.72;;;-1.60;100.00
17260;BME280;8746;49.230;9.220;2023-03-16T02:10:51;100425.28;;;-1.67;100.00
17260;BME280;8746;49.230;9.220;2023-03-16T02:13:20;100423.47;;;-1.71;100.00
17260;BME280;8746;49.230;9.220;2023-03-16T02:15:46;100417.47;;;-1.70;100.00
17260;BME280;8746;49.230;9.220;2023-03-16T02:18:12;100409.78;;;-1.67;100.00
17260;BME280;8746;49.230;9.220;2023-03-16T02:20:41;100416.59;;;-1.71;100.00
17260;BME280;8746;49.230;9.220;2023-03-16T02:23:11;100413.94;;;-1.75;100.00
17260;BME280;8746;49.230;9.220;2023-03-16T02:28:33;100400.69;;;-1.94;100.00
17260;BME280;8746;49.230;9.220;2023-03-16T02:30:59;100404.00;;;-2.01;100.00
17260;BME280;8746;49.230;9.220;2023-03-16T02:33:27;100398.72;;;-2.06;100.00
17260;BME280;8746;49.230;9.220;2023-03-16T02:35:53;100399.03;;;-1.89;100.00
17260;BME280;8746;49.230;9.220;2023-03-16T02:38:18;100391.38;;;-1.83;100.00
17260;BME280;8746;49.230;9.220;2023-03-16T02:40:44;100384.56;;;-1.78;100.00
17260;BME280;8746;49.230;9.220;2023-03-16T02:43:23;100376.50;;;-1.96;100.00
17260;BME280;8746;49.230;9.220;2023-03-16T02:45:59;100379.59;;;-2.16;100.00
17260;BME280;8746;49.230;9.220;2023-03-16T02:48:39;100382.03;;;-2.23;100.00
17260;BME280;8746;49.230;9.220;2023-03-16T02:51:08;100384.72;;;-2.19;100.00
17260;BME280;8746;49.230;9.220;2023-03-16T02:53:34;100379.56;;;-2.19;100.00
17260;BME280;8746;49.230;9.220;2023-03-16T02:55:59;100387.44;;;-2.11;100.00
17260;BME280;8746;49.230;9.220;2023-03-16T02:58:27;100401.38;;;-2.03;100.00
17260;BME280;8746;49.230;9.220;2023-03-16T03:00:53;100398.94;;;-1.94;100.00
17260;BME280;8746;49.230;9.220;2023-03-16T03:03:18;100397.47;;;-1.81;100.00
17260;BME280;8746;49.230;9.220;2023-03-16T03:05:43;100406.91;;;-1.81;100.00
17260;BME280;8746;49.230;9.220;2023-03-16T03:08:09;100400.09;;;-1.78;100.00
17260;BME280;8746;49.230;9.220;2023-03-16T03:10:34;100380.84;;;-1.95;100.00
17260;BME280;8746;49.230;9.220;2023-03-16T03:13:00;100383.00;;;-2.17;100.00
17260;BME280;8746;49.230;9.220;2023-03-16T03:15:25;100381.41;;;-2.12;100.00
17260;BME280;8746;49.230;9.220;2023-03-16T03:17:50;100385.75;;;-2.09;100.00
17260;BME280;8746;49.230;9.220;2023-03-16T03:20:16;100386.63;;;-2.08;100.00
17260;BME280;8746;49.230;9.220;2023-03-16T03:22:43;100385.09;;;-1.97;100.00
17260;BME280;8746;49.230;9.220;2023-03-16T03:25:12;100389.41;;;-1.98;100.00
17260;BME280;8746;49.230;9.220;2023-03-16T03:27:39;100389.50;;;-1.93;100.00
17260;BME280;8746;49.230;9.220;2023-03-16T03:30:11;100391.25;;;-1.92;100.00
17260;BME280;8746;49.230;9.220;2023-03-16T03:32:38;100390.25;;;-1.97;100.00
17260;BME280;8746;49.230;9.220;2023-03-16T03:35:04;100384.28;;;-1.95;100.00
17260;BME280;8746;49.230;9.220;2023-03-16T03:37:29;100392.22;;;-1.84;100.00
17260;BME280;8746;49.230;9.220;2023-03-16T03:39:55;100378.34;;;-1.89;100.00
17260;BME280;8746;49.230;9.220;2023-03-16T03:42:20;100368.84;;;-1.90;100.00
17260;BME280;8746;49.230;9.220;2023-03-16T03:44:48;100360.94;;;-1.99;100.00
17260;BME280;8746;49.230;9.220;2023-03-16T03:47:13;100362.78;;;-1.92;100.00
17260;BME280;8746;49.230;9.220;2023-03-16T03:49:39;100358.41;;;-1.95;100.00
17260;BME280;8746;49.230;9.220;2023-03-16T03:52:05;100358.50;;;-1.90;100.00
17260;BME280;8746;49.230;9.220;2023-03-16T03:54:30;100355.16;;;-1.84;100.00
17260;BME280;8746;49.230;9.220;2023-03-16T03:56:55;100355.13;;;-1.86;100.00
17260;BME280;8746;49.230;9.220;2023-03-16T03:59:21;100356.00;;;-1.85;100.00
17260;BME280;8746;49.230;9.220;2023-03-16T04:01:47;100356.00;;;-1.85;100.00
17260;BME280;8746;49.230;9.220;2023-03-16T04:04:13;100363.88;;;-1.78;100.00
17260;BME280;8746;49.230;9.220;2023-03-16T04:06:39;100364.75;;;-1.79;100.00
17260;BME280;8746;49.230;9.220;2023-03-16T04:09:06;100363.66;;;-1.90;100.00
17260;BME280;8746;49.230;9.220;2023-03-16T04:11:32;100363.53;;;-1.98;100.00
17260;BME280;8746;49.230;9.220;2023-03-16T04:13:57;100362.59;;;-2.03;100.00
17260;BME280;8746;49.230;9.220;2023-03-16T04:16:23;100361.59;;;-2.10;100.00
17260;BME280;8746;49.230;9.220;2023-03-16T04:18:52;100364.19;;;-2.10;100.00
17260;BME280;8746;49.230;9.220;2023-03-16T04:21:19;100371.31;;;-1.98;100.00
17260;BME280;8746;49.230;9.220;2023-03-16T04:23:44;100364.38;;;-2.00;100.00
17260;BME280;8746;49.230;9.220;2023-03-16T04:26:10;100359.09;;;-2.06;100.00
17260;BME280;8746;49.230;9.220;2023-03-16T04:28:35;100355.50;;;-2.15;100.00
17260;BME280;8746;49.230;9.220;2023-03-16T04:31:05;100344.31;;;-2.12;100.00
17260;BME280;8746;49.230;9.220;2023-03-16T04:33:32;100345.16;;;-2.15;100.00
17260;BME280;8746;49.230;9.220;2023-03-16T04:35:58;100351.25;;;-2.10;100.00
17260;BME280;8746;49.230;9.220;2023-03-16T04:38:24;100341.84;;;-2.07;100.00
17260;BME280;8746;49.230;9.220;2023-03-16T04:40:49;100348.88;;;-1.99;100.00
17260;BME280;8746;49.230;9.220;2023-03-16T04:43:14;100351.53;;;-1.96;100.00
17260;BME280;8746;49.230;9.220;2023-03-16T04:45:40;100355.91;;;-1.90;100.00
17260;BME280;8746;49.230;9.220;2023-03-16T04:48:06;100351.47;;;-1.99;100.00
17260;BME280;8746;49.230;9.220;2023-03-16T04:50:31;100351.22;;;-2.13;100.00
17260;BME280;8746;49.230;9.220;2023-03-16T04:52:56;100359.84;;;-2.12;100.00
17260;BME280;8746;49.230;9.220;2023-03-16T04:55:22;100350.53;;;-2.02;100.00
17260;BME280;8746;49.230;9.220;2023-03-16T04:57:48;100352.34;;;-1.98;100.00
17260;BME280;8746;49.230;9.220;2023-03-16T05:00:13;100353.91;;;-2.06;100.00
17260;BME280;8746;49.230;9.220;2023-03-16T05:02:46;100355.88;;;-1.93;100.00
17260;BME280;8746;49.230;9.220;2023-03-16T05:05:12;100355.06;;;-1.90;100.00
17260;BME280;8746;49.230;9.220;2023-03-16T05:07:38;100350.63;;;-1.96;100.00
17260;BME280;8746;49.230;9.220;2023-03-16T05:10:06;100353.25;;;-1.95;100.00
17260;BME280;8746;49.230;9.220;2023-03-16T05:12:31;100352.34;;;-1.98;100.00
17260;BME280;8746;49.230;9.220;2023-03-16T05:14:57;100347.22;;;-1.95;100.00
17260;BME280;8746;49.230;9.220;2023-03-16T05:17:22;100349.72;;;-2.00;100.00
17260;BME280;8746;49.230;9.220;2023-03-16T05:19:48;100342.78;;;-2.01;100.00
17260;BME280;8746;49.230;9.220;2023-03-16T05:22:13;100343.53;;;-2.08;100.00
17260;BME280;8746;49.230;9.220;2023-03-16T05:24:38;100338.31;;;-2.13;100.00
17260;BME280;8746;49.230;9.220;2023-03-16T05:27:04;100348.56;;;-2.16;100.00
17260;BME280;8746;49.230;9.220;2023-03-16T05:29:29;100334.63;;;-2.24;100.00
17260;BME280;8746;49.230;9.220;2023-03-16T05:31:58;100345.84;;;-2.25;100.00
17260;BME280;8746;49.230;9.220;2023-03-16T05:34:23;100344.94;;;-2.27;100.00
17260;BME280;8746;49.230;9.220;2023-03-16T05:36:49;100348.47;;;-2.20;100.00
17260;BME280;8746;49.230;9.220;2023-03-16T05:39:14;100342.50;;;-2.18;100.00
17260;BME280;8746;49.230;9.220;2023-03-16T05:41:40;100338.16;;;-2.20;100.00
17260;BME280;8746;49.230;9.220;2023-03-16T05:44:06;100335.44;;;-2.27;100.00
17260;BME280;8746;49.230;9.220;2023-03-16T05:46:31;100334.63;;;-2.24;100.00
17260;BME280;8746;49.230;9.220;2023-03-16T05:48:57;100338.19;;;-2.19;100.00
17260;BME280;8746;49.230;9.220;2023-03-16T05:51:22;100334.91;;;-2.10;100.00
17260;BME280;8746;49.230;9.220;2023-03-16T05:53:51;100326.25;;;-2.11;100.00
17260;BME280;8746;49.230;9.220;2023-03-16T05:56:16;100331.38;;;-2.14;100.00
17260;BME280;8746;49.230;9.220;2023-03-16T05:58:42;100335.84;;;-2.05;100.00
17260;BME280;8746;49.230;9.220;2023-03-16T06:01:07;100329.66;;;-2.13;100.00
17260;BME280;8746;49.230;9.220;2023-03-16T06:03:34;100334.91;;;-2.08;100.00
17260;BME280;8746;49.230;9.220;2023-03-16T06:06:00;100334.19;;;-2.01;100.00
17260;BME280;8746;49.230;9.220;2023-03-16T06:08:26;100323.97;;;-1.94;100.00
17260;BME280;8746;49.230;9.220;2023-03-16T06:10:51;100319.88;;;-1.81;100.00
17260;BME280;8746;49.230;9.220;2023-03-16T06:13:17;100319.16;;;-1.70;100.00
17260;BME280;8746;49.230;9.220;2023-03-16T06:15:42;100318.41;;;-1.63;100.00
17260;BME280;8746;49.230;9.220;2023-03-16T06:18:08;100321.06;;;-1.58;100.00
17260;BME280;8746;49.230;9.220;2023-03-16T06:20:33;100313.56;;;-1.41;100.00
17260;BME280;8746;49.230;9.220;2023-03-16T06:23:03;100305.97;;;-1.29;100.00
17260;BME280;8746;49.230;9.220;2023-03-16T06:25:28;100318.16;;;-1.22;100.00
17260;BME280;8746;49.230;9.220;2023-03-16T06:27:54;100313.88;;;-1.20;100.00
17260;BME280;8746;49.230;9.220;2023-03-16T06:30:19;100314.84;;;-1.11;100.00
17260;BME280;8746;49.230;9.220;2023-03-16T06:32:45;100320.34;;;-0.87;100.00
17260;BME280;8746;49.230;9.220;2023-03-16T06:35:11;100304.88;;;-0.81;100.00
17260;BME280;8746;49.230;9.220;2023-03-16T06:37:37;100316.28;;;-0.66;100.00
17260;BME280;8746;49.230;9.220;2023-03-16T06:40:03;100316.25;;;-0.68;100.00
17260;BME280;8746;49.230;9.220;2023-03-16T06:42:28;100312.88;;;-0.59;100.00
17260;BME280;8746;49.230;9.220;2023-03-16T06:44:54;100316.44;;;-0.52;100.00
17260;BME280;8746;49.230;9.220;2023-03-16T06:47:19;100320.75;;;-0.51;100.00
17260;BME280;8746;49.230;9.220;2023-03-16T06:49:45;100314.75;;;-0.49;100.00
17260;BME280;8746;49.230;9.220;2023-03-16T06:52:11;100323.47;;;-0.40;100.00
17260;BME280;8746;49.230;9.220;2023-03-16T06:54:38;100314.03;;;-0.35;100.00
17260;BME280;8746;49.230;9.220;2023-03-16T06:57:03;100318.41;;;-0.28;100.00
17260;BME280;8746;49.230;9.220;2023-03-16T06:59:29;100309.91;;;-0.11;100.00
17260;BME280;8746;49.230;9.220;2023-03-16T07:01:54;100317.75;;;-0.08;100.00
17260;BME280;8746;49.230;9.220;2023-03-16T07:04:19;100317.09;;;0.18;100.00
17260;BME280;8746;49.230;9.220;2023-03-16T07:06:45;100315.31;;;0.10;100.00
17260;BME280;8746;49.230;9.220;2023-03-16T07:09:11;100327.53;;;0.24;100.00
17260;BME280;8746;49.230;9.220;2023-03-16T07:11:37;100327.66;;;0.42;100.00
17260;BME280;8746;49.230;9.220;2023-03-16T07:14:02;100327.66;;;0.42;100.00
17260;BME280;8746;49.230;9.220;2023-03-16T07:16:28;100326.88;;;0.54;100.00
17260;BME280;8746;49.230;9.220;2023-03-16T07:18:53;100340.81;;;0.67;100.00
17260;BME280;8746;49.230;9.220;2023-03-16T07:21:19;100335.59;;;0.64;100.00
17260;BME280;8746;49.230;9.220;2023-03-16T07:23:44;100335.66;;;0.73;100.00
17260;BME280;8746;49.230;9.220;2023-03-16T07:26:10;100341.72;;;0.75;100.00
17260;BME280;8746;49.230;9.220;2023-03-16T07:28:37;100346.88;;;0.69;100.00
17260;BME280;8746;49.230;9.220;2023-03-16T07:31:02;100340.00;;;0.71;100.00
17260;BME280;8746;49.230;9.220;2023-03-16T07:33:28;100340.91;;;0.83;100.00
17260;BME280;8746;49.230;9.220;2023-03-16T07:35:54;100334.13;;;1.11;100.00
17260;BME280;8746;49.230;9.220;2023-03-16T07:38:19;100335.81;;;1.00;100.00
17260;BME280;8746;49.230;9.220;2023-03-16T07:40:45;100332.38;;;1.08;100.00
17260;BME280;8746;49.230;9.220;2023-03-16T07:43:11;100331.56;;;1.14;100.00
17260;BME280;8746;49.230;9.220;2023-03-16T07:45:37;100328.19;;;1.32;100.00
17260;BME280;8746;49.230;9.220;2023-03-16T07:48:02;100328.16;;;1.37;100.00
17260;BME280;8746;49.230;9.220;2023-03-16T07:50:27;100334.28;;;1.48;100.00
17260;BME280;8746;49.230;9.220;2023-03-16T07:52:53;100329.94;;;1.42;100.00
17260;BME280;8746;49.230;9.220;2023-03-16T07:55:18;100330.00;;;1.67;100.00
17260;BME280;8746;49.230;9.220;2023-03-16T07:57:44;100330.84;;;1.66;100.00
17260;BME280;8746;49.230;9.220;2023-03-16T08:00:13;100323.97;;;1.88;100.00
17260;BME280;8746;49.230;9.220;2023-03-16T08:02:39;100323.09;;;1.88;100.00
17260;BME280;8746;49.230;9.220;2023-03-16T08:05:05;100324.84;;;2.01;100.00
17260;BME280;8746;49.230;9.220;2023-03-16T08:07:30;100324.00;;;2.13;100.00
17260;BME280;8746;49.230;9.220;2023-03-16T08:09:56;100321.38;;;2.05;100.00
17260;BME280;8746;49.230;9.220;2023-03-16T08:12:21;100328.31;;;2.06;99.25
17260;BME280;8746;49.230;9.220;2023-03-16T08:14:47;100330.06;;;2.04;99.24
17260;BME280;8746;49.230;9.220;2023-03-16T08:17:12;100323.13;;;2.10;100.00
17260;BME280;8746;49.230;9.220;2023-03-16T08:19:38;100320.53;;;2.31;99.60
17260;BME280;8746;49.230;9.220;2023-03-16T08:22:04;100319.66;;;2.48;98.73
17260;BME280;8746;49.230;9.220;2023-03-16T08:24:30;100312.69;;;2.62;98.22
17260;BME280;8746;49.230;9.220;2023-03-16T08:26:56;100315.28;;;2.64;97.78
17260;BME280;8746;49.230;9.220;2023-03-16T08:29:23;100303.97;;;2.82;95.01
17260;BME280;8746;49.230;9.220;2023-03-16T08:31:49;100308.31;;;2.83;95.84
17260;BME280;8746;49.230;9.220;2023-03-16T08:34:15;100301.31;;;2.97;96.02
17260;BME280;8746;49.230;9.220;2023-03-16T08:36:42;100302.13;;;3.09;94.11
17260;BME280;8746;49.230;9.220;2023-03-16T08:39:08;100303.03;;;3.00;93.08
17260;BME280;8746;49.230;9.220;2023-03-16T08:41:33;100295.19;;;3.04;92.85
17260;BME280;8746;49.230;9.220;2023-03-16T08:43:59;100295.13;;;3.20;94.21
17260;BME280;8746;49.230;9.220;2023-03-16T08:46:25;100286.38;;;3.36;93.35
17260;BME280;8746;49.230;9.220;2023-03-16T08:48:50;100281.09;;;3.49;93.03
17260;BME280;8746;49.230;9.220;2023-03-16T08:51:16;100282.81;;;3.48;89.90
17260;BME280;8746;49.230;9.220;2023-03-16T08:53:43;100279.31;;;3.51;90.80
17260;BME280;8746;49.230;9.220;2023-03-16T08:56:11;100285.34;;;3.64;91.78
17260;BME280;8746;49.230;9.220;2023-03-16T08:58:37;100275.66;;;3.83;88.19
17260;BME280;8746;49.230;9.220;2023-03-16T09:01:04;100287.78;;;3.89;88.26
17260;BME280;8746;49.230;9.220;2023-03-16T09:03:31;100286.00;;;3.95;87.22
17260;BME280;8746;49.230;9.220;2023-03-16T09:06:05;100283.44;;;3.88;88.11
17260;BME280;8746;49.230;9.220;2023-03-16T09:08:31;100284.13;;;4.11;89.43
17260;BME280;8746;49.230;9.220;2023-03-16T09:11:01;100282.28;;;4.24;85.44
17260;BME280;8746;49.230;9.220;2023-03-16T09:13:28;100276.06;;;4.39;86.75
17260;BME280;8746;49.230;9.220;2023-03-16T09:15:55;100273.22;;;4.62;88.36
17260;BME280;8746;49.230;9.220;2023-03-16T09:18:21;100275.63;;;4.81;86.57
17260;BME280;8746;49.230;9.220;2023-03-16T09:20:47;100275.34;;;5.06;84.65
17260;BME280;8746;49.230;9.220;2023-03-16T09:23:14;100271.44;;;5.38;86.29
17260;BME280;8746;49.230;9.220;2023-03-16T09:25:39;100275.69;;;5.48;83.98
17260;BME280;8746;49.230;9.220;2023-03-16T09:28:05;100260.94;;;5.39;81.77
17260;BME280;8746;49.230;9.220;2023-03-16T09:30:30;100256.09;;;5.72;84.50
17260;BME280;8746;49.230;9.220;2023-03-16T09:32:57;100253.44;;;5.75;84.38
17260;BME280;8746;49.230;9.220;2023-03-16T09:35:22;100248.94;;;5.85;82.73
17260;BME280;8746;49.230;9.220;2023-03-16T09:37:48;100255.91;;;5.86;81.64
17260;BME280;8746;49.230;9.220;2023-03-16T09:40:21;100247.06;;;5.92;82.82
17260;BME280;8746;49.230;9.220;2023-03-16T09:42:58;100250.41;;;6.05;81.47
17260;BME280;8746;49.230;9.220;2023-03-16T09:48:01;100248.81;;;5.94;81.57
17260;BME280;8746;49.230;9.220;2023-03-16T09:50:31;100238.31;;;5.94;82.32
17260;BME280;8746;49.230;9.220;2023-03-16T09:55:52;100248.75;;;5.98;81.28
17260;BME280;8746;49.230;9.220;2023-03-16T09:58:20;100245.97;;;6.08;81.82
17260;BME280;8746;49.230;9.220;2023-03-16T10:06:03;100237.91;;;6.69;76.18
17260;BME280;8746;49.230;9.220;2023-03-16T10:08:43;100229.03;;;6.75;77.72
17260;BME280;8746;49.230;9.220;2023-03-16T10:11:30;100228.34;;;7.09;76.49
17260;BME280;8746;49.230;9.220;2023-03-16T10:14:08;100216.94;;;7.87;76.35
17260;BME280;8746;49.230;9.220;2023-03-16T10:17:03;100217.41;;;8.03;73.02
17260;BME280;8746;49.230;9.220;2023-03-16T10:19:39;100210.94;;;8.16;71.68
17260;BME280;8746;49.230;9.220;2023-03-16T10:22:23;100200.06;;;8.63;74.25
17260;BME280;8746;49.230;9.220;2023-03-16T10:25:18;100189.94;;;8.81;69.63
17260;BME280;8746;49.230;9.220;2023-03-16T10:27:46;100188.28;;;8.78;71.83
17260;BME280;8746;49.230;9.220;2023-03-16T10:30:33;100183.88;;;8.47;72.01
17260;BME280;8746;49.230;9.220;2023-03-16T10:33:02;100175.50;;;8.31;71.20
17260;BME280;8746;49.230;9.220;2023-03-16T10:35:39;100178.97;;;8.33;69.95
17260;BME280;8746;49.230;9.220;2023-03-16T10:38:29;100182.53;;;8.31;70.41
17260;BME280;8746;49.230;9.220;2023-03-16T10:40:55;100191.81;;;8.11;70.53
17260;BME280;8746;49.230;9.220;2023-03-16T10:43:24;100193.84;;;8.66;71.48
17260;BME280;8746;49.230;9.220;2023-03-16T10:45:49;100189.47;;;8.66;70.69
17260;BME280;8746;49.230;9.220;2023-03-16T10:48:17;100192.16;;;8.65;70.63
17260;BME280;8746;49.230;9.220;2023-03-16T10:50:49;100194.16;;;8.22;71.73
17260;BME280;8746;49.230;9.220;2023-03-16T10:53:22;100178.91;;;8.35;69.82
17260;BME280;8746;49.230;9.220;2023-03-16T10:55:49;100170.84;;;8.41;70.68
17260;BME280;8746;49.230;9.220;2023-03-16T10:58:23;100174.59;;;8.95;70.57
17260;BME280;8746;49.230;9.220;2023-03-16T11:00:49;100182.72;;;9.18;69.54
17260;BME280;8746;49.230;9.220;2023-03-16T11:06:04;100190.03;;;9.65;64.99
17260;BME280;8746;49.230;9.220;2023-03-16T11:08:33;100180.13;;;9.71;66.15
17260;BME280;8746;49.230;9.220;2023-03-16T11:11:06;100177.22;;;9.81;67.69
17260;BME280;8746;49.230;9.220;2023-03-16T11:13:34;100168.00;;;10.19;64.74
17260;BME280;8746;49.230;9.220;2023-03-16T11:18:44;100156.59;;;9.67;64.70
17260;BME280;8746;49.230;9.220;2023-03-16T11:21:22;100152.22;;;10.18;64.41
17260;BME280;8746;49.230;9.220;2023-03-16T11:23:55;100155.25;;;10.57;63.76
17260;BME280;8746;49.230;9.220;2023-03-16T11:26:28;100151.75;;;10.32;64.07
17260;BME280;8746;49.230;9.220;2023-03-16T11:29:03;100147.66;;;10.23;60.80
17260;BME280;8746;49.230;9.220;2023-03-16T11:31:46;100153.69;;;10.01;63.08
17260;BME280;8746;49.230;9.220;2023-03-16T11:34:18;100147.13;;;10.13;60.89
17260;BME280;8746;49.230;9.220;2023-03-16T11:36:55;100144.19;;;9.97;62.76
17260;BME280;8746;49.230;9.220;2023-03-16T11:42:03;100131.34;;;10.11;62.03
17260;BME280;8746;49.230;9.220;2023-03-16T11:45:05;100125.66;;;10.24;63.46
17260;BME280;8746;49.230;9.220;2023-03-16T12:01:23;100111.31;;;9.55;62.11
17260;BME280;8746;49.230;9.220;2023-03-16T12:15:22;100107.19;;;9.73;61.28
17260;BME280;8746;49.230;9.220;2023-03-16T12:17:59;100108.50;;;9.87;62.66
17260;BME280;8746;49.230;9.220;2023-03-16T12:20:42;100094.03;;;10.24;63.01
17260;BME280;8746;49.230;9.220;2023-03-16T12:23:36;100091.16;;;10.30;63.81
17260;BME280;8746;49.230;9.220;2023-03-16T12:26:02;100085.69;;;10.36;62.64
17260;BME280;8746;49.230;9.220;2023-03-16T12:28:29;100080.97;;;10.45;60.86
17260;BME280;8746;49.230;9.220;2023-03-16T12:31:15;100085.09;;;10.76;60.70
17260;BME280;8746;49.230;9.220;2023-03-16T12:34:02;100081.41;;;10.80;58.77
17260;BME280;8746;49.230;9.220;2023-03-16T12:36:37;100071.44;;;10.64;59.43
17260;BME280;8746;49.230;9.220;2023-03-16T12:41:48;100060.22;;;10.59;58.29
17260;BME280;8746;49.230;9.220;2023-03-16T12:44:44;100052.91;;;10.44;58.40
17260;BME280;8746;49.230;9.220;2023-03-16T12:47:42;100048.31;;;10.49;59.94
17260;BME280;8746;49.230;9.220;2023-03-16T12:50:15;100041.56;;;10.64;58.51
17260;BME280;8746;49.230;9.220;2023-03-16T12:52:45;100050.53;;;10.82;58.93
17260;BME280;8746;49.230;9.220;2023-03-16T12:55:22;100039.31;;;11.42;57.55
17260;BME280;8746;49.230;9.220;2023-03-16T12:57:49;100041.16;;;11.39;55.60
17260;BME280;8746;49.230;9.220;2023-03-16T13:00:18;100031.44;;;10.97;57.05
17260;BME280;8746;49.230;9.220;2023-03-16T13:02:49;100023.88;;;11.53;59.44
17260;BME280;8746;49.230;9.220;2023-03-16T13:05:17;100032.63;;;11.12;58.57
17260;BME280;8746;49.230;9.220;2023-03-16T13:08:05;100028.38;;;10.86;56.73
17260;BME280;8746;49.230;9.220;2023-03-16T13:10:33;100018.59;;;11.10;60.39
17260;BME280;8746;49.230;9.220;2023-03-16T13:13:13;100022.09;;;11.11;56.92
17260;BME280;8746;49.230;9.220;2023-03-16T13:15:40;100026.78;;;11.04;54.30
17260;BME280;8746;49.230;9.220;2023-03-16T13:20:57;100024.41;;;11.41;55.58
17260;BME280;8746;49.230;9.220;2023-03-16T13:23:26;100023.72;;;11.15;55.88
17260;BME280;8746;49.230;9.220;2023-03-16T13:28:29;100024.69;;;11.12;55.70
17260;BME280;8746;49.230;9.220;2023-03-16T13:30:55;100025.16;;;11.22;53.03
17260;BME280;8746;49.230;9.220;2023-03-16T13:33:23;100017.50;;;11.16;49.77
17260;BME280;8746;49.230;9.220;2023-03-16T13:35:52;100009.59;;;11.57;49.96
17260;BME280;8746;49.230;9.220;2023-03-16T13:38:22;100000.09;;;11.74;51.60
17260;BME280;8746;49.230;9.220;2023-03-16T13:40:53;100000.09;;;11.53;48.92
17260;BME280;8746;49.230;9.220;2023-03-16T13:43:25;100006.56;;;11.46;48.00
17260;BME280;8746;49.230;9.220;2023-03-16T13:45:53;100004.19;;;11.39;47.02
17260;BME280;8746;49.230;9.220;2023-03-16T13:48:18;99993.19;;;11.69;47.69
17260;BME280;8746;49.230;9.220;2023-03-16T13:50:58;99984.38;;;11.90;47.90
17260;BME280;8746;49.230;9.220;2023-03-16T13:53:27;99978.88;;;11.54;47.82
17260;BME280;8746;49.230;9.220;2023-03-16T13:55:54;99988.16;;;11.44;47.77
17260;BME280;8746;49.230;9.220;2023-03-16T13:58:23;99980.03;;;11.28;47.58
17260;BME280;8746;49.230;9.220;2023-03-16T14:00:58;99985.97;;;11.33;46.77